sensor_id;sensor_type;location;lat;lon;timestamp;temperature;humidity
15048;DHT22;7621;52.350;13.308;2022-09-03T04:54:31;13.30;87.70
15048;DHT22;7621;52.350;13.308;2022-09-03T04:56:57;13.30;87.60
15048;DHT22;7621;52.350;13.308;2022-09-03T04:59:22;13.30;87.40
15048;DHT22;7621;52.350;13.308;2022-09-03T05:01:48;13.40;87.30
15048;DHT22;7621;52.350;13.308;2022-09-03T05:04:14;13.40;87.40
15048;DHT22;7621;52.350;13.308;2022-09-03T05:06:39;13.40;88.10
15048;DHT22;7621;52.350;13.308;2022-09-03T05:09:05;13.50;87.30
15048;DHT22;7621;52.350;13.308;2022-09-03T05:11:31;13.50;87.00
15048;DHT22;7621;52.350;13.308;2022-09-03T05:13:58;13.60;87.00
15048;DHT22;7621;52.350;13.308;2022-09-03T05:16:25;13.60;87.00
15048;DHT22;7621;52.350;13.308;2022-09-03T05:18:54;13.70;86.70
15048;DHT22;7621;52.350;13.308;2022-09-03T05:21:20;13.80;86.60
15048;DHT22;7621;52.350;13.308;2022-09-03T05:23:48;13.80;86.40
15048;DHT22;7621;52.350;13.308;2022-09-03T05:26:20;13.90;86.10
15048;DHT22;7621;52.350;13.308;2022-09-03T05:28:47;14.00;85.90
15048;DHT22;7621;52.350;13.308;2022-09-03T05:31:18;14.00;85.50
15048;DHT22;7621;52.350;13.308;2022-09-03T05:33:52;14.10;85.60
15048;DHT22;7621;52.350;13.308;2022-09-03T05:36:20;14.10;85.20
15048;DHT22;7621;52.350;13.308;2022-09-03T05:38:47;14.10;85.10
15048;DHT22;7621;52.350;13.308;2022-09-03T05:41:14;14.20;84.80
15048;DHT22;7621;52.350;13.308;2022-09-03T05:43:41;14.20;84.70
15048;DHT22;7621;52.350;13.308;2022-09-03T05:46:09;14.30;84.80
15048;DHT22;7621;52.350;13.308;2022-09-03T05:48:36;14.40;84.70
15048;DHT22;7621;52.350;13.308;2022-09-03T05:51:16;14.50;84.60
15048;DHT22;7621;52.350;13.308;2022-09-03T05:53:44;14.50;84.30
15048;DHT22;7621;52.350;13.308;2022-09-03T05:56:13;14.60;84.20
15048;DHT22;7621;52.350;13.308;2022-09-03T05:58:41;14.70;84.40
15048;DHT22;7621;52.350;13.308;2022-09-03T06:01:20;14.80;84.20
15048;DHT22;7621;52.350;13.308;2022-09-03T06:03:51;14.90;83.70
15048;DHT22;7621;52.350;13.308;2022-09-03T06:06:17;15.00;83.50
15048;DHT22;7621;52.350;13.308;2022-09-03T06:08:43;15.10;83.30
15048;DHT22;7621;52.350;13.308;2022-09-03T06:11:09;15.10;83.00
15048;DHT22;7621;52.350;13.308;2022-09-03T06:13:35;15.20;82.60
15048;DHT22;7621;52.350;13.308;2022-09-03T06:16:04;15.30;82.60
15048;DHT22;7621;52.350;13.308;2022-09-03T06:18:30;15.40;82.80
15048;DHT22;7621;52.350;13.308;2022-09-03T06:21:01;15.40;82.50
15048;DHT22;7621;52.350;13.308;2022-09-03T06:23:28;15.60;82.10
15048;DHT22;7621;52.350;13.308;2022-09-03T06:26:09;15.70;81.60
15048;DHT22;7621;52.350;13.308;2022-09-03T06:28:37;15.80;81.40
15048;DHT22;7621;52.350;13.308;2022-09-03T06:31:04;15.90;81.40
15048;DHT22;7621;52.350;13.308;2022-09-03T06:33:32;16.00;81.30
15048;DHT22;7621;52.350;13.308;2022-09-03T06:35:59;16.00;80.20
15048;DHT22;7621;52.350;13.308;2022-09-03T06:38:26;16.10;80.00
15048;DHT22;7621;52.350;13.308;2022-09-03T06:40:54;16.10;79.90
15048;DHT22;7621;52.350;13.308;2022-09-03T06:43:21;16.20;79.80
15048;DHT22;7621;52.350;13.308;2022-09-03T06:45:58;16.30;79.40
15048;DHT22;7621;52.350;13.308;2022-09-03T06:48:26;16.40;79.40
15048;DHT22;7621;52.350;13.308;2022-09-03T06:50:59;16.60;79.60
15048;DHT22;7621;52.350;13.308;2022-09-03T06:53:27;16.90;78.20
15048;DHT22;7621;52.350;13.308;2022-09-03T06:55:56;17.00;77.20
15048;DHT22;7621;52.350;13.308;2022-09-03T06:58:23;17.20;77.50
15048;DHT22;7621;52.350;13.308;2022-09-03T07:00:49;17.40;76.90
15048;DHT22;7621;52.350;13.308;2022-09-03T07:03:16;17.60;76.60
15048;DHT22;7621;52.350;13.308;2022-09-03T07:05:42;17.70;76.00
15048;DHT22;7621;52.350;13.308;2022-09-03T07:08:08;17.80;74.70
15048;DHT22;7621;52.350;13.308;2022-09-03T07:10:36;18.00;74.50
15048;DHT22;7621;52.350;13.308;2022-09-03T07:13:02;18.20;74.00
15048;DHT22;7621;52.350;13.308;2022-09-03T07:15:28;18.30;73.00
15048;DHT22;7621;52.350;13.308;2022-09-03T07:17:53;18.60;73.10
15048;DHT22;7621;52.350;13.308;2022-09-03T07:20:19;18.90;71.60
15048;DHT22;7621;52.350;13.308;2022-09-03T07:22:45;19.10;70.80
15048;DHT22;7621;52.350;13.308;2022-09-03T07:25:10;19.40;70.20
15048;DHT22;7621;52.350;13.308;2022-09-03T07:27:36;19.60;68.40
15048;DHT22;7621;52.350;13.308;2022-09-03T07:30:01;19.70;68.20
15048;DHT22;7621;52.350;13.308;2022-09-03T07:32:27;19.70;67.60
15048;DHT22;7621;52.350;13.308;2022-09-03T07:34:53;19.70;68.30
15048;DHT22;7621;52.350;13.308;2022-09-03T07:37:19;19.80;67.90
15048;DHT22;7621;52.350;13.308;2022-09-03T07:39:44;19.90;67.50
15048;DHT22;7621;52.350;13.308;2022-09-03T07:42:11;20.00;66.60
15048;DHT22;7621;52.350;13.308;2022-09-03T07:44:36;20.00;67.30
15048;DHT22;7621;52.350;13.308;2022-09-03T07:47:02;20.00;67.60
15048;DHT22;7621;52.350;13.308;2022-09-03T07:49:28;20.10;67.30
15048;DHT22;7621;52.350;13.308;2022-09-03T07:51:53;20.20;66.70
15048;DHT22;7621;52.350;13.308;2022-09-03T07:54:19;20.20;66.40
15048;DHT22;7621;52.350;13.308;2022-09-03T07:56:46;20.40;66.20
15048;DHT22;7621;52.350;13.308;2022-09-03T07:59:12;20.50;65.90
15048;DHT22;7621;52.350;13.308;2022-09-03T08:01:38;20.70;65.00
15048;DHT22;7621;52.350;13.308;2022-09-03T08:04:03;20.80;65.90
15048;DHT22;7621;52.350;13.308;2022-09-03T08:06:32;21.10;65.40
15048;DHT22;7621;52.350;13.308;2022-09-03T08:09:00;21.40;63.70
15048;DHT22;7621;52.350;13.308;2022-09-03T08:11:27;21.80;63.90
15048;DHT22;7621;52.350;13.308;2022-09-03T08:14:14;22.40;62.50
15048;DHT22;7621;52.350;13.308;2022-09-03T08:16:43;22.90;60.50
15048;DHT22;7621;52.350;13.308;2022-09-03T08:19:11;23.40;58.30
15048;DHT22;7621;52.350;13.308;2022-09-03T08:21:37;23.70;57.70
15048;DHT22;7621;52.350;13.308;2022-09-03T08:24:06;24.10;56.00
15048;DHT22;7621;52.350;13.308;2022-09-03T08:29:54;24.90;55.90
15048;DHT22;7621;52.350;13.308;2022-09-03T08:32:20;25.40;54.70
15048;DHT22;7621;52.350;13.308;2022-09-03T08:34:45;26.10;54.20
15048;DHT22;7621;52.350;13.308;2022-09-03T08:37:11;27.00;52.30
15048;DHT22;7621;52.350;13.308;2022-09-03T08:39:37;27.70;49.60
15048;DHT22;7621;52.350;13.308;2022-09-03T08:44:57;29.30;48.10
15048;DHT22;7621;52.350;13.308;2022-09-03T08:47:35;30.30;45.80
15048;DHT22;7621;52.350;13.308;2022-09-03T08:50:15;31.20;44.90
15048;DHT22;7621;52.350;13.308;2022-09-03T08:58:07;33.70;39.80
15048;DHT22;7621;52.350;13.308;2022-09-03T09:06:33;35.60;36.60
15048;DHT22;7621;52.350;13.308;2022-09-03T09:09:24;36.20;35.40
15048;DHT22;7621;52.350;13.308;2022-09-03T09:15:09;37.30;33.70
15048;DHT22;7621;52.350;13.308;2022-09-03T09:21:10;38.10;33.20
15048;DHT22;7621;52.350;13.308;2022-09-03T09:23:49;38.90;31.90
15048;DHT22;7621;52.350;13.308;2022-09-03T09:26:17;38.50;31.30
15048;DHT22;7621;52.350;13.308;2022-09-03T09:28:45;38.00;32.50
15048;DHT22;7621;52.350;13.308;2022-09-03T09:31:14;38.20;31.90
15048;DHT22;7621;52.350;13.308;2022-09-03T09:33:43;38.60;30.40
15048;DHT22;7621;52.350;13.308;2022-09-03T09:36:11;38.50;29.90
15048;DHT22;7621;52.350;13.308;2022-09-03T09:38:40;38.70;30.50
15048;DHT22;7621;52.350;13.308;2022-09-03T09:41:13;38.90;30.90
15048;DHT22;7621;52.350;13.308;2022-09-03T09:43:40;39.40;29.50
15048;DHT22;7621;52.350;13.308;2022-09-03T09:46:11;39.90;29.30
15048;DHT22;7621;52.350;13.308;2022-09-03T09:48:44;40.20;28.40
15048;DHT22;7621;52.350;13.308;2022-09-03T09:51:17;40.60;28.30
15048;DHT22;7621;52.350;13.308;2022-09-03T09:53:43;40.80;28.20
15048;DHT22;7621;52.350;13.308;2022-09-03T09:56:21;41.00;28.20
15048;DHT22;7621;52.350;13.308;2022-09-03T09:58:46;41.50;28.30
15048;DHT22;7621;52.350;13.308;2022-09-03T10:01:23;42.00;28.00
15048;DHT22;7621;52.350;13.308;2022-09-03T10:03:56;42.30;27.20
15048;DHT22;7621;52.350;13.308;2022-09-03T10:06:29;42.10;27.00
15048;DHT22;7621;52.350;13.308;2022-09-03T10:09:17;41.80;27.50
15048;DHT22;7621;52.350;13.308;2022-09-03T10:11:48;41.40;27.00
15048;DHT22;7621;52.350;13.308;2022-09-03T10:14:23;41.10;26.70
15048;DHT22;7621;52.350;13.308;2022-09-03T10:16:59;39.90;27.60
15048;DHT22;7621;52.350;13.308;2022-09-03T10:22:48;38.10;28.70
15048;DHT22;7621;52.350;13.308;2022-09-03T10:25:16;37.80;29.00
15048;DHT22;7621;52.350;13.308;2022-09-03T10:27:43;38.20;27.60
15048;DHT22;7621;52.350;13.308;2022-09-03T10:30:11;37.80;27.40
15048;DHT22;7621;52.350;13.308;2022-09-03T10:33:12;37.30;27.00
15048;DHT22;7621;52.350;13.308;2022-09-03T10:35:45;36.90;27.20
15048;DHT22;7621;52.350;13.308;2022-09-03T10:38:30;36.30;27.80
15048;DHT22;7621;52.350;13.308;2022-09-03T10:41:28;35.90;28.60
15048;DHT22;7621;52.350;13.308;2022-09-03T10:47:16;34.20;28.90
15048;DHT22;7621;52.350;13.308;2022-09-03T10:53:02;32.40;31.60
15048;DHT22;7621;52.350;13.308;2022-09-03T10:55:55;30.40;33.90
15048;DHT22;7621;52.350;13.308;2022-09-03T11:01:46;27.00;38.20
15048;DHT22;7621;52.350;13.308;2022-09-03T11:04:32;26.50;40.10
15048;DHT22;7621;52.350;13.308;2022-09-03T11:07:05;27.70;38.90
15048;DHT22;7621;52.350;13.308;2022-09-03T11:09:51;28.90;37.00
15048;DHT22;7621;52.350;13.308;2022-09-03T11:12:30;29.50;36.60
15048;DHT22;7621;52.350;13.308;2022-09-03T11:15:02;29.60;35.50
15048;DHT22;7621;52.350;13.308;2022-09-03T11:17:37;28.80;37.10
15048;DHT22;7621;52.350;13.308;2022-09-03T11:20:13;27.80;38.10
15048;DHT22;7621;52.350;13.308;2022-09-03T11:22:42;27.20;39.30
15048;DHT22;7621;52.350;13.308;2022-09-03T11:25:11;27.80;39.60
15048;DHT22;7621;52.350;13.308;2022-09-03T11:32:44;27.20;39.30
15048;DHT22;7621;52.350;13.308;2022-09-03T11:35:23;26.50;40.00
15048;DHT22;7621;52.350;13.308;2022-09-03T11:38:02;26.00;41.50
15048;DHT22;7621;52.350;13.308;2022-09-03T11:40:37;25.70;42.70
